createdAt,value
2018-10-11T00:00:54.321Z,72.28
2018-10-11T00:01:58.769Z,72.12
2018-10-11T00:03:03.116Z,72.21
2018-10-11T00:04:07.437Z,72.16
2018-10-11T00:05:11.798Z,72.07
2018-10-11T00:06:16.150Z,71.97
2018-10-11T00:07:20.776Z,72.10
2018-10-11T00:08:25.122Z,71.90
2018-10-11T00:09:29.686Z,71.62
2018-10-11T00:10:34.034Z,71.72
2018-10-11T00:11:38.511Z,71.18
2018-10-11T00:12:42.817Z,71.00
2018-10-11T00:13:47.616Z,71.38
2018-10-11T00:14:52.003Z,71.22
2018-10-11T00:15:56.404Z,71.49
2018-10-11T00:17:00.753Z,71.25
2018-10-11T00:18:05.065Z,71.31
2018-10-11T00:19:10.080Z,71.42
2018-10-11T00:20:14.802Z,71.56
2018-10-11T00:21:19.289Z,71.66
2018-10-11T00:22:23.888Z,71.59
2018-10-11T00:23:28.264Z,71.79
2018-10-11T00:24:33.462Z,71.85
2018-10-11T00:25:37.838Z,72.01
2018-10-11T00:26:42.524Z,72.22
2018-10-11T00:27:46.886Z,72.18
2018-10-11T00:28:51.285Z,72.43
2018-10-11T00:29:55.622Z,72.63
2018-10-11T00:30:59.922Z,72.82
2018-10-11T00:32:04.237Z,72.82
2018-10-11T00:33:09.032Z,72.92
2018-10-11T00:34:13.451Z,73.14
2018-10-11T00:35:17.777Z,73.26
2018-10-11T00:36:22.105Z,73.19
2018-10-11T00:37:27.465Z,73.37
2018-10-11T00:38:31.794Z,73.43
2018-10-11T00:39:36.422Z,73.23
2018-10-11T00:40:40.816Z,73.40
2018-10-11T00:41:45.169Z,73.56
2018-10-11T00:42:49.519Z,73.33
2018-10-11T00:43:53.907Z,73.45
2018-10-11T00:44:58.282Z,73.15
2018-10-11T00:46:02.889Z,73.05
2018-10-11T00:47:07.439Z,73.30
2018-10-11T00:48:12.111Z,73.08
2018-10-11T00:49:16.504Z,73.12
2018-10-11T00:50:20.844Z,73.29
2018-10-11T00:51:25.396Z,73.33
2018-10-11T00:52:31.023Z,73.22
2018-10-11T00:53:35.377Z,73.24
2018-10-11T00:54:39.715Z,73.21
2018-10-11T00:55:44.073Z,73.21
2018-10-11T00:56:48.394Z,73.37
2018-10-11T00:57:53.336Z,73.51
2018-10-11T00:58:58.007Z,73.41
2018-10-11T01:00:02.397Z,73.53
2018-10-11T01:01:06.751Z,73.43
2018-10-11T01:02:11.842Z,73.29
2018-10-11T01:03:16.516Z,73.29
2018-10-11T01:04:21.689Z,73.04
2018-10-11T01:05:26.049Z,73.19
2018-10-11T01:06:30.397Z,72.86
2018-10-11T01:07:34.742Z,72.86
2018-10-11T01:08:39.684Z,72.47
2018-10-11T01:09:44.092Z,72.52
2018-10-11T01:10:48.449Z,72.44
2018-10-11T01:11:53.080Z,72.17
2018-10-11T01:12:57.432Z,72.33
2018-10-11T01:14:02.073Z,72.30
2018-10-11T01:15:06.565Z,72.10
2018-10-11T01:16:10.903Z,71.90
2018-10-11T01:17:15.271Z,71.59
2018-10-11T01:18:19.885Z,71.95
2018-10-11T01:19:24.242Z,71.83
2018-10-11T01:20:28.593Z,71.97
2018-10-11T01:21:32.974Z,72.11
2018-10-11T01:22:37.334Z,71.84
2018-10-11T01:23:41.748Z,71.92
2018-10-11T01:24:46.433Z,71.97
2018-10-11T01:25:50.793Z,71.82
2018-10-11T01:26:55.187Z,71.98
2018-10-11T01:27:59.576Z,71.85
2018-10-11T01:29:03.960Z,71.48
2018-10-11T01:30:08.401Z,71.82
2018-10-11T01:31:18.234Z,71.62
2018-10-11T01:32:22.657Z,71.54
2018-10-11T01:33:26.998Z,71.81
2018-10-11T01:34:31.358Z,71.80
2018-10-11T01:35:35.702Z,71.77
2018-10-11T01:36:40.090Z,71.67
2018-10-11T01:37:45.616Z,71.74
2018-10-11T01:38:50.657Z,71.74
2018-10-11T01:39:55.032Z,71.96
2018-10-11T01:40:59.400Z,72.09
2018-10-11T01:42:03.750Z,72.27
2018-10-11T01:43:08.078Z,72.45
2018-10-11T01:44:14.081Z,72.54
2018-10-11T01:45:18.493Z,72.84
2018-10-11T01:46:22.837Z,72.76
2018-10-11T01:47:27.174Z,72.86
2018-10-11T01:48:32.666Z,73.10
2018-10-11T01:49:37.761Z,73.13
2018-10-11T01:50:43.436Z,73.29
2018-10-11T01:51:47.866Z,73.69
2018-10-11T01:52:53.086Z,73.37
2018-10-11T01:53:57.451Z,73.39
2018-10-11T01:55:01.873Z,73.34
2018-10-11T01:56:06.234Z,73.56
2018-10-11T01:57:11.449Z,73.73
2018-10-11T01:58:15.808Z,73.99
2018-10-11T01:59:20.189Z,74.09
2018-10-11T02:00:24.956Z,73.59
2018-10-11T02:01:29.379Z,73.75
2018-10-11T02:02:34.735Z,73.76
2018-10-11T02:03:39.436Z,73.83
2018-10-11T02:04:44.787Z,73.81
2018-10-11T02:05:49.117Z,74.15
2018-10-11T02:06:53.760Z,73.86
2018-10-11T02:07:59.026Z,73.99
2018-10-11T02:09:03.606Z,74.05
2018-10-11T02:10:08.347Z,74.19
2018-10-11T02:11:12.706Z,74.10
2018-10-11T02:12:17.073Z,74.04
2018-10-11T02:13:21.476Z,74.01
2018-10-11T02:14:25.885Z,74.07
2018-10-11T02:15:30.610Z,74.03
2018-10-11T02:16:36.030Z,74.15
2018-10-11T02:17:40.561Z,73.94
2018-10-11T02:18:44.964Z,74.08
2018-10-11T02:19:49.346Z,74.30
2018-10-11T02:20:53.702Z,74.47
2018-10-11T02:21:58.097Z,74.28
2018-10-11T02:23:06.485Z,74.77
2018-10-11T02:24:11.423Z,74.60
2018-10-11T02:25:15.771Z,74.55
2018-10-11T02:26:20.394Z,74.59
2018-10-11T02:27:24.765Z,74.92
2018-10-11T02:28:29.150Z,74.79
2018-10-11T02:29:33.926Z,74.59
2018-10-11T02:30:38.283Z,74.95
2018-10-11T02:31:42.645Z,74.75
2018-10-11T02:32:47.034Z,74.63
2018-10-11T02:33:51.397Z,74.69
2018-10-11T02:34:55.783Z,74.66
2018-10-11T02:36:00.610Z,74.70
2018-10-11T02:37:04.999Z,74.76
2018-10-11T02:38:09.580Z,74.69
2018-10-11T02:39:13.971Z,74.77
2018-10-11T02:40:18.332Z,74.60
2018-10-11T02:41:22.752Z,74.87
2018-10-11T02:42:28.251Z,74.90
2018-10-11T02:43:32.808Z,74.95
2018-10-11T02:44:37.170Z,75.21
2018-10-11T02:45:41.514Z,75.01
2018-10-11T02:46:45.874Z,74.85
2018-10-11T02:47:50.218Z,74.84
2018-10-11T02:48:54.872Z,75.24
2018-10-11T02:49:59.236Z,75.08
2018-10-11T02:51:03.575Z,75.11
2018-10-11T02:52:08.003Z,75.13
2018-10-11T02:53:12.332Z,75.28
2018-10-11T02:54:16.708Z,75.17
2018-10-11T02:55:22.424Z,75.35
2018-10-11T02:56:27.070Z,75.63
2018-10-11T02:57:36.596Z,75.75
2018-10-11T02:58:46.204Z,75.86
2018-10-11T02:59:50.652Z,75.87
2018-10-11T03:00:55.084Z,76.14
2018-10-11T03:01:59.992Z,76.36
2018-10-11T03:03:05.603Z,76.27
2018-10-11T03:04:09.941Z,76.42
2018-10-11T03:05:17.241Z,76.17
2018-10-11T03:06:24.576Z,76.34
2018-10-11T03:07:29.496Z,76.38
2018-10-11T03:08:34.586Z,76.61
2018-10-11T03:09:40.907Z,76.33
2018-10-11T03:10:45.414Z,76.31
2018-10-11T03:11:49.774Z,76.51
2018-10-11T03:12:54.162Z,76.27
2018-10-11T03:13:58.629Z,76.57
2018-10-11T03:15:03.481Z,76.60
2018-10-11T03:16:07.896Z,76.40
2018-10-11T03:17:12.266Z,76.27
2018-10-11T03:18:16.661Z,76.42
2018-10-11T03:19:21.003Z,76.27
2018-10-11T03:20:25.381Z,76.64
2018-10-11T03:21:30.055Z,76.92
2018-10-11T03:22:34.455Z,77.19
2018-10-11T03:23:38.815Z,76.99
2018-10-11T03:24:44.020Z,77.09
2018-10-11T03:25:48.435Z,77.61
2018-10-11T03:26:54.473Z,77.83
2018-10-11T03:27:58.900Z,77.74
2018-10-11T03:29:03.270Z,77.95
2018-10-11T03:30:07.670Z,77.93
2018-10-11T03:31:12.314Z,77.82
2018-10-11T03:32:16.764Z,78.26
2018-10-11T03:33:21.388Z,78.21
2018-10-11T03:34:26.432Z,78.41
2018-10-11T03:35:30.802Z,78.49
2018-10-11T03:36:35.149Z,78.77
2018-10-11T03:37:40.787Z,79.06
2018-10-11T03:38:45.159Z,79.26
2018-10-11T03:39:50.000Z,79.30
2018-10-11T03:40:54.463Z,79.35
2018-10-11T03:41:59.666Z,79.55
2018-10-11T03:43:04.013Z,79.43
2018-10-11T03:44:08.377Z,79.50
2018-10-11T03:45:12.778Z,79.54
2018-10-11T03:46:17.555Z,80.03
2018-10-11T03:47:21.902Z,79.95
2018-10-11T03:48:26.660Z,80.28
2018-10-11T03:49:31.022Z,80.56
2018-10-11T03:50:35.421Z,80.71
2018-10-11T03:51:39.985Z,80.72
2018-10-11T03:52:44.693Z,80.90
2018-10-11T03:53:49.053Z,80.98
2018-10-11T03:54:53.419Z,80.94
2018-10-11T03:55:57.799Z,80.87
2018-10-11T03:57:02.221Z,80.64
2018-10-11T03:58:07.286Z,80.98
2018-10-11T03:59:12.018Z,80.63
2018-10-11T04:00:16.482Z,80.80
2018-10-11T04:01:20.885Z,80.74
2018-10-11T04:02:25.234Z,81.05
2018-10-11T04:03:29.661Z,80.80
2018-10-11T04:04:34.053Z,81.28
2018-10-11T04:05:38.852Z,81.12
2018-10-11T04:06:43.275Z,81.56
2018-10-11T04:07:47.790Z,81.62
2018-10-11T04:08:52.134Z,81.81
2018-10-11T04:09:56.497Z,81.67
2018-10-11T04:11:00.818Z,81.86
2018-10-11T04:12:06.913Z,81.55
2018-10-11T04:13:11.308Z,81.92
2018-10-11T04:14:15.663Z,81.74
2018-10-11T04:15:20.064Z,81.84
2018-10-11T04:16:24.403Z,81.88
2018-10-11T04:17:29.395Z,81.82
2018-10-11T04:18:34.224Z,81.81
2018-10-11T04:19:38.546Z,82.04
2018-10-11T04:20:42.861Z,82.10
2018-10-11T04:21:47.257Z,82.15
2018-10-11T04:22:51.606Z,82.31
2018-10-11T04:23:55.919Z,82.47
2018-10-11T04:25:00.695Z,82.45
2018-10-11T04:26:05.152Z,82.50
2018-10-11T04:27:09.791Z,82.64
2018-10-11T04:28:14.120Z,82.64
2018-10-11T04:29:18.530Z,82.58
2018-10-11T04:30:22.919Z,82.65
2018-10-11T04:31:28.598Z,82.49
2018-10-11T04:32:33.044Z,82.85
2018-10-11T04:33:37.434Z,82.76
2018-10-11T04:34:41.931Z,82.75
2018-10-11T04:35:46.356Z,82.60
2018-10-11T04:36:50.670Z,82.71
2018-10-11T04:37:55.347Z,82.77
2018-10-11T04:38:59.695Z,82.67
2018-10-11T04:40:04.105Z,82.67
2018-10-11T04:41:08.430Z,82.85
2018-10-11T04:42:12.775Z,82.61
2018-10-11T04:43:17.324Z,82.89
2018-10-11T04:44:21.833Z,82.99
2018-10-11T04:45:26.175Z,83.05
2018-10-11T04:46:30.524Z,83.07
2018-10-11T04:47:34.889Z,83.03
2018-10-11T04:48:39.229Z,83.15
2018-10-11T04:49:43.571Z,83.06
2018-10-11T04:50:48.390Z,83.20
2018-10-11T04:51:52.753Z,83.35
2018-10-11T04:52:57.298Z,83.70
2018-10-11T04:54:01.675Z,83.78
2018-10-11T04:55:06.398Z,83.59
2018-10-11T04:56:10.785Z,83.79
2018-10-11T04:57:15.624Z,84.02
2018-10-11T04:58:20.022Z,83.83
2018-10-11T04:59:24.682Z,83.87
2018-10-11T05:00:29.316Z,83.91
2018-10-11T05:01:34.517Z,84.01
2018-10-11T05:02:39.162Z,84.30
2018-10-11T05:03:43.774Z,84.51
2018-10-11T05:04:48.297Z,84.46
2018-10-11T05:05:52.714Z,84.46
2018-10-11T05:06:57.082Z,84.45
2018-10-11T05:08:01.943Z,84.53
2018-10-11T05:09:07.109Z,84.65
2018-10-11T05:10:11.475Z,84.70
2018-10-11T05:11:16.574Z,84.75
2018-10-11T05:12:21.000Z,84.98
2018-10-11T05:13:31.384Z,84.95
2018-10-11T05:14:35.806Z,85.12
2018-10-11T05:15:41.024Z,85.13
2018-10-11T05:16:45.442Z,85.22
2018-10-11T05:17:50.483Z,85.45
2018-10-11T05:18:58.239Z,85.20
2018-10-11T05:20:03.234Z,85.41
2018-10-11T05:21:09.821Z,85.47
2018-10-11T05:22:14.270Z,85.52
2018-10-11T05:23:18.665Z,85.59
2018-10-11T05:24:23.042Z,85.67
2018-10-11T05:25:27.473Z,85.53
2018-10-11T05:26:32.383Z,85.63
2018-10-11T05:27:36.766Z,85.39
2018-10-11T05:28:41.479Z,85.52
2018-10-11T05:29:45.935Z,85.75
2018-10-11T05:43:55.641Z,85.63
2018-10-11T05:45:30.696Z,86.06
2018-10-11T05:46:35.221Z,86.69
2018-10-11T05:47:39.562Z,86.59
2018-10-11T05:48:43.968Z,86.47
2018-10-11T05:49:49.329Z,86.76
2018-10-11T05:50:53.910Z,86.97
2018-10-11T05:51:58.478Z,87.28
2018-10-11T05:53:03.759Z,87.31
2018-10-11T05:54:09.055Z,87.45
2018-10-11T05:55:13.780Z,87.59
2018-10-11T05:56:19.313Z,87.60
2018-10-11T05:57:23.640Z,87.18
2018-10-11T05:58:28.517Z,87.40
2018-10-11T05:59:33.059Z,87.29
2018-10-11T06:00:37.455Z,87.27
2018-10-11T06:01:41.850Z,87.12
2018-10-11T06:02:55.986Z,87.28
2018-10-11T06:04:04.420Z,87.05
2018-10-11T06:05:13.223Z,86.95
2018-10-11T06:06:18.240Z,87.19
2018-10-11T06:07:22.620Z,86.94
2018-10-11T06:08:27.042Z,86.95
2018-10-11T06:09:31.928Z,87.16
2018-10-11T06:10:37.630Z,86.94
2018-10-11T06:11:42.083Z,86.83
2018-10-11T06:12:46.548Z,86.79
2018-10-11T06:13:51.792Z,86.43
2018-10-11T06:14:58.148Z,86.12
2018-10-11T06:16:02.936Z,86.02
2018-10-11T06:17:07.543Z,85.81
2018-10-11T06:18:12.402Z,85.75
2018-10-11T06:19:17.341Z,85.59
2018-10-11T06:20:21.731Z,85.15
2018-10-11T06:21:26.761Z,84.95
2018-10-11T06:22:32.314Z,84.50
2018-10-11T06:23:37.956Z,84.52
2018-10-11T06:24:43.437Z,83.80
2018-10-11T06:25:49.581Z,83.22
2018-10-11T06:26:57.283Z,83.22
2018-10-11T06:28:02.393Z,82.82
2018-10-11T06:29:07.928Z,82.12
2018-10-11T06:30:14.739Z,81.87
2018-10-11T06:31:19.394Z,81.12
2018-10-11T06:32:24.214Z,80.26
2018-10-11T06:33:28.630Z,79.66
2018-10-11T06:34:33.759Z,79.00
2018-10-11T06:35:41.658Z,78.59
2018-10-11T06:36:46.487Z,78.00
2018-10-11T06:37:50.966Z,76.90
2018-10-11T06:39:01.409Z,76.15
2018-10-11T06:40:07.573Z,75.27
2018-10-11T06:41:15.046Z,74.31
2018-10-11T06:42:19.528Z,73.36
2018-10-11T06:43:24.915Z,72.69
2018-10-11T06:44:29.340Z,72.40
2018-10-11T06:45:34.339Z,70.96
2018-10-11T06:46:39.112Z,70.62
2018-10-11T06:47:46.700Z,70.61
2018-10-11T06:48:51.951Z,70.81
2018-10-11T06:49:56.462Z,69.26
2018-10-11T06:51:01.398Z,68.10
2018-10-11T06:52:15.717Z,66.41
2018-10-11T06:53:21.503Z,66.87
2018-10-11T06:54:27.184Z,66.79
2018-10-11T06:55:35.543Z,66.72
2018-10-11T06:56:49.413Z,66.61
2018-10-11T06:57:55.451Z,66.04
2018-10-11T06:59:00.688Z,65.20
2018-10-11T07:00:05.572Z,64.82
2018-10-11T07:01:10.129Z,64.33
2018-10-11T07:02:14.621Z,63.44
2018-10-11T07:03:19.412Z,62.89
2018-10-11T07:04:24.160Z,62.04
2018-10-11T07:05:32.014Z,60.01
2018-10-11T07:06:36.734Z,59.50
2018-10-11T07:07:42.887Z,59.61
2018-10-11T07:08:48.392Z,59.30
2018-10-11T07:09:54.276Z,59.01
2018-10-11T07:10:59.018Z,58.71
2018-10-11T07:12:04.815Z,58.09
2018-10-11T07:13:09.962Z,56.96
2018-10-11T07:14:14.986Z,55.27
2018-10-11T07:15:20.928Z,55.85
2018-10-11T07:16:25.585Z,55.42
2018-10-11T07:17:30.646Z,55.01
2018-10-11T07:18:34.985Z,53.51
2018-10-11T07:19:39.462Z,53.13
2018-10-11T07:21:53.381Z,52.31
2018-10-11T07:22:58.823Z,52.40
2018-10-11T07:24:06.659Z,51.78
2018-10-11T07:26:33.415Z,50.10
2018-10-11T07:27:38.807Z,50.88
2018-10-11T07:28:43.172Z,50.36
2018-10-11T07:29:48.577Z,50.66
2018-10-11T07:30:53.559Z,49.62
2018-10-11T07:31:59.965Z,50.13
2018-10-11T07:33:04.378Z,49.43
2018-10-11T07:34:08.884Z,48.58
2018-10-11T07:35:13.431Z,48.00
2018-10-11T07:36:17.834Z,47.88
2018-10-11T07:37:22.565Z,46.38
2018-10-11T07:38:27.017Z,46.10
2018-10-11T07:39:31.432Z,45.58
2018-10-11T07:40:35.900Z,44.78
2018-10-11T07:41:40.329Z,44.92
2018-10-11T07:42:45.771Z,45.31
2018-10-11T07:43:51.928Z,45.18
2018-10-11T07:44:58.023Z,44.57
2018-10-11T07:46:02.787Z,45.11
2018-10-11T07:47:08.371Z,44.80
2018-10-11T07:48:13.270Z,45.69
2018-10-11T07:49:19.076Z,44.97
2018-10-11T07:50:24.675Z,44.31
2018-10-11T07:51:30.258Z,43.22
2018-10-11T07:52:35.150Z,43.05
2018-10-11T07:53:39.796Z,43.40
2018-10-11T07:54:44.373Z,42.59
2018-10-11T07:55:48.914Z,42.88
2018-10-11T07:56:53.865Z,43.34
2018-10-11T07:57:58.809Z,43.77
2018-10-11T07:59:14.415Z,43.58
2018-10-11T08:00:19.140Z,42.99
2018-10-11T08:01:23.741Z,43.02
2018-10-11T10:42:58.027Z,40.02
2018-10-11T10:44:02.810Z,40.11
2018-10-11T10:45:07.664Z,39.65
2018-10-11T10:46:12.099Z,38.38
2018-10-11T10:47:16.527Z,38.71
2018-10-11T10:48:21.377Z,37.80
2018-10-11T10:49:26.496Z,38.54
2018-10-11T10:50:33.264Z,37.58
2018-10-11T10:51:39.276Z,39.40
2018-10-11T10:52:46.269Z,39.99
2018-10-11T10:53:51.570Z,39.40
2018-10-11T10:55:00.483Z,38.19
2018-10-11T10:56:05.299Z,37.23
2018-10-11T10:57:09.998Z,36.11
2018-10-11T10:58:17.679Z,34.26
2018-10-11T10:59:22.497Z,33.49
2018-10-11T11:00:27.733Z,32.92
2018-10-11T11:01:32.899Z,32.77
2018-10-11T11:02:38.948Z,33.36
2018-10-11T11:03:45.249Z,33.40
2018-10-11T11:04:50.559Z,31.78
2018-10-11T11:05:55.357Z,32.08
2018-10-11T11:07:00.803Z,32.89
2018-10-11T11:08:06.297Z,32.91
2018-10-11T11:09:12.582Z,32.63
2018-10-11T11:10:18.703Z,32.55
2018-10-11T11:11:25.589Z,32.57
2018-10-11T11:12:30.987Z,33.20
2018-10-11T11:13:36.568Z,33.17
2018-10-11T11:14:45.298Z,32.21
2018-10-11T11:15:51.410Z,32.54
2018-10-11T11:16:55.920Z,33.41
2018-10-11T11:18:00.868Z,33.75
2018-10-11T11:19:07.781Z,33.93
2018-10-11T11:20:13.253Z,34.57
2018-10-11T11:21:19.710Z,34.89
2018-10-11T11:22:24.534Z,36.34
2018-10-11T11:23:28.953Z,36.97
2018-10-11T11:24:35.975Z,37.65
2018-10-11T11:25:40.602Z,36.78
2018-10-11T11:26:46.052Z,35.31
2018-10-11T11:27:51.393Z,35.64
2018-10-11T11:28:57.860Z,34.72
2018-10-11T11:30:04.578Z,34.73
2018-10-11T11:31:10.500Z,34.47
2018-10-11T11:32:17.371Z,36.15
2018-10-11T11:33:23.799Z,36.45
2018-10-11T11:34:33.831Z,37.73
2018-10-11T11:35:39.216Z,36.28
2018-10-11T11:36:44.290Z,36.83
2018-10-11T11:37:49.362Z,37.63
2018-10-11T11:38:55.575Z,36.96
2018-10-11T11:40:00.284Z,36.35
2018-10-11T11:41:06.605Z,37.29
2018-10-11T11:42:13.886Z,36.04
2018-10-11T11:43:20.351Z,37.23
2018-10-11T11:44:26.060Z,36.24
2018-10-11T11:45:33.094Z,38.21
2018-10-11T11:46:38.251Z,38.48
2018-10-11T11:47:44.742Z,38.98
2018-10-11T11:48:49.186Z,38.53
2018-10-11T11:49:55.727Z,39.01
2018-10-11T11:51:00.205Z,39.00
2018-10-11T11:52:05.305Z,38.52
2018-10-11T11:53:09.703Z,37.07
2018-10-11T11:54:20.963Z,35.49
2018-10-11T11:55:25.500Z,35.93
2018-10-11T11:56:29.970Z,36.43
2018-10-11T11:57:35.738Z,37.45
2018-10-11T11:58:40.889Z,38.35
2018-10-11T11:59:45.556Z,37.74
2018-10-11T12:00:50.580Z,39.19
2018-10-11T12:01:55.229Z,38.62
2018-10-11T12:03:02.412Z,38.03
2018-10-11T12:04:08.508Z,37.86
2018-10-11T12:05:13.672Z,37.65
2018-10-11T12:06:19.291Z,38.29
2018-10-11T12:07:24.353Z,38.14
2018-10-11T12:08:29.468Z,36.31
2018-10-11T12:09:34.751Z,37.41
2018-10-11T12:10:39.670Z,38.11
2018-10-11T12:11:45.027Z,38.38
2018-10-11T12:12:54.163Z,40.20
2018-10-11T12:14:01.994Z,40.33
2018-10-11T12:15:08.773Z,40.31
2018-10-11T12:16:14.074Z,38.39
2018-10-11T12:17:20.357Z,38.87
2018-10-11T12:18:27.131Z,39.30
2018-10-11T12:19:35.056Z,39.70
2018-10-11T12:20:45.725Z,40.06
2018-10-11T12:21:52.364Z,39.37
2018-10-11T12:22:59.698Z,38.86
2018-10-11T12:24:04.824Z,38.81
2018-10-11T12:25:10.515Z,38.17
2018-10-11T12:26:18.664Z,39.53
2018-10-11T12:27:25.615Z,37.72
2018-10-11T12:28:36.128Z,37.29
2018-10-11T12:29:42.746Z,36.86
2018-10-11T12:30:47.717Z,38.09
2018-10-11T12:31:52.153Z,36.71
2018-10-11T12:32:58.504Z,36.05
2018-10-11T12:34:03.932Z,35.56
2018-10-11T12:35:09.301Z,36.38
2018-10-11T12:36:14.831Z,36.25
2018-10-11T12:37:21.702Z,37.54
2018-10-11T12:38:27.586Z,38.02
2018-10-11T12:39:33.441Z,39.24
2018-10-11T12:40:38.524Z,39.76
2018-10-11T12:41:43.644Z,39.27
2018-10-11T12:42:48.780Z,38.88
2018-10-11T12:43:53.565Z,39.37
2018-10-11T12:44:58.695Z,39.40
2018-10-11T12:46:03.787Z,37.83
2018-10-11T12:47:12.952Z,37.03
2018-10-11T12:48:19.489Z,36.53
2018-10-11T12:49:24.019Z,35.57
2018-10-11T12:50:28.797Z,35.33
2018-10-11T12:51:34.134Z,36.04
2018-10-11T12:52:39.854Z,36.19
2018-10-11T12:53:48.302Z,34.93
2018-10-11T12:54:51.352Z,34.25
2018-10-11T12:55:56.113Z,33.94
2018-10-11T12:57:01.586Z,33.87
2018-10-11T12:58:06.939Z,33.62
2018-10-11T12:59:13.681Z,34.12
2018-10-11T13:00:18.897Z,35.54
2018-10-11T13:01:24.343Z,36.83
2018-10-11T13:02:30.544Z,36.66
2018-10-11T13:03:36.338Z,37.01
2018-10-11T13:04:41.139Z,38.53
2018-10-11T13:05:47.488Z,38.57
2018-10-11T13:06:52.068Z,37.06
2018-10-11T13:07:58.133Z,38.48
2018-10-11T13:09:02.840Z,37.91
2018-10-11T13:10:07.672Z,37.79
2018-10-11T13:11:13.062Z,38.82
2018-10-11T13:12:20.191Z,38.91
2018-10-11T13:13:27.477Z,38.96
2018-10-11T13:14:33.352Z,39.63
2018-10-11T13:15:40.415Z,38.13
2018-10-11T13:16:46.312Z,37.18
2018-10-11T13:17:51.257Z,35.32
2018-10-11T13:18:56.346Z,34.43
2018-10-11T13:20:01.846Z,34.71
2018-10-11T13:21:07.925Z,34.16
2018-10-11T13:22:12.905Z,34.39
2018-10-11T13:23:18.709Z,33.94
2018-10-11T13:24:22.270Z,33.07
2018-10-11T13:25:27.548Z,32.73
2018-10-11T13:26:33.405Z,33.18
2018-10-11T13:27:38.308Z,35.04
2018-10-11T13:28:43.835Z,35.25
2018-10-11T13:29:49.261Z,34.67
2018-10-11T13:30:54.351Z,35.28
2018-10-11T13:31:59.447Z,34.72
2018-10-11T13:33:04.583Z,34.82
2018-10-11T13:34:11.006Z,33.93
2018-10-11T13:35:17.864Z,34.36
2018-10-11T13:36:22.450Z,33.78
2018-10-11T13:37:28.347Z,34.74
2018-10-11T13:38:33.397Z,35.43
2018-10-11T13:39:38.220Z,35.98
2018-10-11T13:40:43.058Z,37.46
2018-10-11T13:41:49.864Z,38.08
2018-10-11T13:42:54.589Z,37.28
2018-10-11T13:43:59.291Z,37.44
2018-10-11T13:45:04.381Z,37.41
2018-10-11T13:46:09.146Z,39.12
2018-10-11T13:47:15.603Z,39.75
2018-10-11T13:48:31.005Z,39.86
2018-10-11T13:49:38.534Z,39.39
2018-10-11T13:50:44.960Z,38.63
2018-10-11T13:51:50.415Z,38.33
2018-10-11T13:52:56.759Z,38.93
2018-10-11T13:54:02.244Z,38.26
2018-10-11T13:55:11.102Z,38.64
2018-10-11T13:56:13.643Z,37.77
2018-10-11T13:57:20.895Z,38.15
2018-10-11T13:58:24.054Z,37.54
2018-10-11T13:59:29.129Z,37.09
2018-10-11T14:00:35.001Z,38.42
2018-10-11T14:01:40.044Z,37.79
2018-10-11T14:02:45.235Z,40.03
2018-10-11T14:03:50.191Z,40.89
2018-10-11T14:05:00.493Z,41.86
2018-10-11T14:06:06.664Z,43.11
2018-10-11T14:07:12.885Z,44.79
2018-10-11T14:08:18.294Z,44.57
2018-10-11T14:09:23.444Z,45.12
2018-10-11T14:10:30.498Z,45.51
2018-10-11T14:11:36.832Z,45.25
2018-10-11T14:12:41.469Z,45.78
2018-10-11T14:13:46.124Z,46.30
2018-10-11T14:14:51.585Z,46.25
2018-10-11T14:15:57.230Z,46.70
2018-10-11T14:17:02.024Z,46.21
2018-10-11T14:18:11.908Z,45.95
2018-10-11T14:19:14.095Z,45.88
2018-10-11T14:20:21.288Z,47.04
2018-10-11T14:21:26.824Z,46.27
2018-10-11T14:22:31.526Z,47.19
2018-10-11T14:23:36.297Z,46.99
2018-10-11T14:24:41.426Z,46.53
2018-10-11T14:25:46.385Z,47.24
2018-10-11T14:26:51.501Z,47.55
2018-10-11T14:27:57.189Z,47.71
2018-10-11T14:29:03.733Z,48.80
2018-10-11T14:30:15.395Z,49.07
2018-10-11T14:31:21.223Z,50.03
2018-10-11T14:32:26.833Z,50.63
2018-10-11T14:33:31.752Z,50.20
2018-10-11T14:34:36.511Z,50.42
2018-10-11T14:35:41.348Z,51.34
2018-10-11T14:36:47.633Z,51.06
2018-10-11T14:37:52.327Z,52.05
2018-10-11T14:38:56.905Z,52.10
2018-10-11T14:40:02.455Z,51.52
2018-10-11T14:41:06.999Z,51.70
2018-10-11T14:42:11.569Z,52.54
2018-10-11T14:43:21.206Z,53.15
2018-10-11T14:44:25.799Z,52.61
2018-10-11T14:45:33.491Z,53.24
2018-10-11T14:46:38.813Z,53.20
2018-10-11T14:47:43.787Z,53.19
2018-10-11T14:48:52.266Z,53.85
2018-10-11T14:49:58.261Z,53.89
2018-10-11T14:51:05.195Z,53.35
2018-10-11T14:52:10.437Z,53.92
2018-10-11T14:53:15.048Z,53.55
2018-10-11T14:54:19.990Z,54.48
2018-10-11T14:55:26.523Z,54.71
2018-10-11T14:56:31.909Z,54.86
2018-10-11T14:57:37.722Z,54.37
2018-10-11T14:58:42.883Z,54.72
2018-10-11T14:59:47.971Z,54.67
2018-10-11T15:00:52.456Z,54.92
2018-10-11T15:01:58.450Z,54.66
2018-10-11T15:03:03.294Z,55.00
2018-10-11T15:04:09.961Z,55.32
2018-10-11T15:05:15.194Z,55.32
2018-10-11T15:06:19.810Z,55.49
2018-10-11T15:07:24.316Z,55.14
2018-10-11T15:08:29.201Z,55.31
2018-10-11T15:09:35.241Z,55.34
2018-10-11T15:10:40.373Z,55.28
2018-10-11T15:11:45.850Z,55.31
2018-10-11T15:12:50.371Z,55.54
2018-10-11T15:13:58.859Z,55.76
2018-10-11T15:15:03.714Z,55.70
2018-10-11T15:16:08.161Z,55.52
2018-10-11T15:17:13.235Z,54.84
2018-10-11T15:18:20.117Z,55.13
2018-10-11T15:19:24.959Z,55.10
2018-10-11T15:20:30.290Z,55.77
2018-10-11T15:21:35.491Z,56.04
2018-10-11T15:22:40.740Z,56.24
2018-10-11T15:23:45.311Z,56.37
2018-10-11T15:24:50.696Z,56.42
2018-10-11T15:25:56.443Z,57.02
2018-10-11T15:27:00.930Z,56.90
2018-10-11T15:28:05.974Z,56.97
2018-10-11T15:29:10.975Z,57.04
2018-10-11T15:30:16.825Z,56.76
2018-10-11T15:31:21.933Z,56.81
2018-10-11T15:32:27.007Z,57.13
2018-10-11T15:33:33.047Z,57.10
2018-10-11T15:34:38.037Z,57.29
2018-10-11T15:35:42.750Z,57.09
2018-10-11T15:36:48.538Z,57.51
2018-10-11T15:37:53.732Z,57.40
2018-10-11T15:38:59.388Z,57.70
2018-10-11T15:40:04.186Z,57.82
2018-10-11T15:41:09.280Z,57.19
2018-10-11T15:42:15.101Z,57.59
2018-10-11T15:43:20.065Z,57.94
2018-10-11T15:44:24.606Z,58.19
2018-10-11T15:45:31.011Z,58.16
2018-10-11T15:46:36.953Z,58.25
2018-10-11T15:47:41.439Z,58.07
2018-10-11T15:48:45.944Z,58.51
2018-10-11T15:49:51.685Z,58.72
2018-10-11T15:50:58.200Z,58.64
2018-10-11T15:52:04.952Z,58.69
2018-10-11T15:53:10.636Z,58.56
2018-10-11T15:54:16.446Z,58.78
2018-10-11T15:55:24.184Z,58.90
2018-10-11T15:56:31.305Z,58.92
2018-10-11T15:57:36.774Z,58.85
2018-10-11T15:58:42.754Z,59.00
2018-10-11T15:59:47.825Z,59.26
2018-10-11T16:00:52.783Z,59.18
2018-10-11T16:01:57.751Z,59.02
2018-10-11T16:03:06.230Z,59.25
2018-10-11T16:04:12.082Z,59.24
2018-10-11T16:05:17.033Z,59.01
2018-10-11T16:06:21.574Z,59.15
2018-10-11T16:07:27.049Z,59.40
2018-10-11T16:08:38.117Z,59.23
2018-10-11T16:09:42.595Z,61.59
2018-10-11T16:10:49.039Z,59.05
2018-10-11T16:11:53.801Z,58.82
2018-10-11T16:12:59.618Z,59.17
2018-10-11T16:14:05.974Z,59.48
2018-10-11T16:15:11.006Z,59.21
2018-10-11T16:16:16.380Z,59.49
2018-10-11T16:17:21.214Z,59.54
2018-10-11T16:18:26.118Z,59.01
2018-10-11T16:19:34.348Z,59.31
2018-10-11T16:20:38.822Z,59.40
2018-10-11T16:21:44.170Z,59.50
2018-10-11T16:22:48.668Z,59.67
2018-10-11T16:23:54.247Z,59.46
2018-10-11T16:24:58.685Z,59.49
2018-10-11T16:26:03.520Z,59.56
2018-10-11T16:27:08.158Z,59.59
2018-10-11T16:28:13.349Z,59.53
2018-10-11T16:29:17.854Z,59.41
2018-10-11T16:30:23.528Z,59.48
2018-10-11T16:43:15.463Z,59.97
2018-10-11T16:44:20.545Z,59.46
2018-10-11T16:45:25.042Z,59.89
2018-10-11T16:46:32.950Z,59.49
2018-10-11T16:47:37.868Z,59.74
2018-10-11T16:48:43.737Z,60.21
2018-10-11T16:49:48.656Z,60.20
2018-10-11T16:50:53.721Z,59.70
2018-10-11T16:51:58.765Z,60.20
2018-10-11T16:53:03.285Z,59.76
2018-10-11T16:54:11.520Z,60.03
2018-10-11T16:55:17.208Z,60.03
2018-10-11T22:43:26.798Z,73.78
2018-10-11T22:44:32.286Z,74.18
2018-10-11T22:45:37.386Z,74.38
2018-10-11T22:46:42.333Z,74.44
2018-10-11T22:47:48.001Z,74.68
2018-10-11T22:48:52.943Z,74.71
2018-10-11T22:49:58.511Z,74.61
2018-10-11T22:51:03.080Z,74.80
2018-10-11T22:52:07.887Z,75.04
2018-10-11T22:53:12.619Z,74.94
2018-10-11T22:54:17.380Z,75.01
2018-10-11T22:55:22.912Z,75.27
2018-10-11T22:56:27.760Z,75.15